Aviation Digital Data Service (ADDS)

Output produced by METARs form (0053 UTC 23 March 2019)
found at http://www.aviationweather.gov/metar/data/
 
Forecast for: PTPN (POHNPEI AIRPORT , FM)
Text: PTPN 222337Z 2300/2324 10012KT P6SM FEW018 SCT050
Forecast period: 0000 UTC 23 March 2019 to 0000 UTC 24 March 2019
Forecast type: FROM: standard forecast or significant change
Winds: from the E (100 degrees) at 14 MPH (12 knots; 6.2 m/s)
Visibility: 6 or more miles 10+ km)
Ceiling: at least 12,000 feet AGL
Clouds: few clouds at 1800 feet AGL
scattered clouds at 5000 feet AGL
Weather: no significant weather forecast for this period